Kezdőlap
METAR-TAF:

METAR-TAF

Repülőterek :

Newport, Vermont, Amerikai Egyesült Államok

földrajzi szélesség: 44-53-20N, földrajzi hosszúság: 072-13-45W, magasság: 283 m

Jelenlegi meteorológiai megfigyelések

A jelentés 15 perccel ezelõtt készült, 20:16 UTC
Nyugat-délnyugati szél 8 kt széllökések: 15 kt
Hőmérséklet 1°C
Páratartalom 55%
Légköri nyomás 1016 hPa
Látótávolság: 16.1 km
Szórványos felhőzet 4300 lábon

METAR: KEFK 222016Z AUTO 25008G15KT 10SM SCT043 01/M07 A3001 RMK AO2 T00081067

Idő: 15:31 (20:31 UTC)


TAF: hiányzik

Meteorológiai megfigyelések és előrejelzések több, mint 4000 repülőtéren (METAR és TAF jelentéseket).

A térképen piros és sárga pontok jelzik az elérhető meteorológiai állomásokat.

Mozgassa az egeret a pont fölött, hogy megjelenjen az állomás neve.

Azután kattintson az időjárási megfigyelések és előrejelzések megtekintéséhez.

A térkép megváltoztatása: kattintson a fekete keresztel jelölt zöld gombra ráközelítéshez, a vonallal jelölt zöld gombra távolításhoz, vagy a zöld nyilakra a szomszédos térképek eléréséhez.


METAR-TAF: